Corner Brook, Canada
Current Conditions -  °F | °C
As of 2:00 PM on Saturday 20 Dec 2014 (Local Time) from CYDF Reporting Station
Overcast Overcast  
Wind Chill: 20°   Ceiling: 2400
Heat Index: 28°   Visibility: 15mi
Dew Point: 21°   Wind: 8mph
Humidity: 74%   Direction: 50°NE
Pressure: 30.26"   Gusts: NA
Location:  48.95°N, 57.95°W
Report Text: CYDF 201700Z 05007KT 15SM OVC024 M02/M06 A3026 RMK SC8 SLP248
Loading
Personal Weather Stations






























Interactive Weather Map New forecast layout! Learn more

10-Day Weather Forecast

Advertisements
Track Severe Weather on mobile